sensor_id;sensor_type;location;lat;lon;timestamp;temperature;humidity
65396;HTU21D;52004;45.136;39.010;2023-08-08T00:02:00;25.71;57.54
65396;HTU21D;52004;45.136;39.010;2023-08-08T00:04:26;25.71;57.51
65396;HTU21D;52004;45.136;39.010;2023-08-08T00:06:52;25.71;57.52
65396;HTU21D;52004;45.136;39.010;2023-08-08T00:09:17;25.68;57.55
65396;HTU21D;52004;45.136;39.010;2023-08-08T00:11:43;25.67;57.57
65396;HTU21D;52004;45.136;39.010;2023-08-08T00:14:09;25.66;57.60
65396;HTU21D;52004;45.136;39.010;2023-08-08T00:16:35;25.65;57.61
65396;HTU21D;52004;45.136;39.010;2023-08-08T00:19:01;25.60;57.65
65396;HTU21D;52004;45.136;39.010;2023-08-08T00:21:27;25.58;57.72
65396;HTU21D;52004;45.136;39.010;2023-08-08T00:23:53;25.53;57.80
65396;HTU21D;52004;45.136;39.010;2023-08-08T00:26:18;25.50;57.87
65396;HTU21D;52004;45.136;39.010;2023-08-08T00:28:44;25.47;57.90
65396;HTU21D;52004;45.136;39.010;2023-08-08T00:31:10;25.46;57.96
65396;HTU21D;52004;45.136;39.010;2023-08-08T00:33:37;25.44;58.00
65396;HTU21D;52004;45.136;39.010;2023-08-08T00:36:03;25.42;58.03
65396;HTU21D;52004;45.136;39.010;2023-08-08T00:38:29;25.40;58.06
65396;HTU21D;52004;45.136;39.010;2023-08-08T00:40:55;25.37;58.09
65396;HTU21D;52004;45.136;39.010;2023-08-08T00:43:21;25.35;58.15
65396;HTU21D;52004;45.136;39.010;2023-08-08T00:45:47;25.34;58.19
65396;HTU21D;52004;45.136;39.010;2023-08-08T00:48:13;25.34;58.18
65396;HTU21D;52004;45.136;39.010;2023-08-08T00:50:42;25.34;58.22
65396;HTU21D;52004;45.136;39.010;2023-08-08T00:53:08;25.33;58.25
65396;HTU21D;52004;45.136;39.010;2023-08-08T00:55:34;25.31;58.29
65396;HTU21D;52004;45.136;39.010;2023-08-08T00:58:02;25.33;58.33
65396;HTU21D;52004;45.136;39.010;2023-08-08T01:00:28;25.32;58.35
65396;HTU21D;52004;45.136;39.010;2023-08-08T01:02:54;25.32;58.38
65396;HTU21D;52004;45.136;39.010;2023-08-08T01:05:20;25.30;58.43
65396;HTU21D;52004;45.136;39.010;2023-08-08T01:07:57;25.28;58.48
65396;HTU21D;52004;45.136;39.010;2023-08-08T01:10:29;25.27;58.55
65396;HTU21D;52004;45.136;39.010;2023-08-08T01:13:00;25.25;58.60
65396;HTU21D;52004;45.136;39.010;2023-08-08T01:15:28;25.24;58.61
65396;HTU21D;52004;45.136;39.010;2023-08-08T01:17:54;25.23;58.64
65396;HTU21D;52004;45.136;39.010;2023-08-08T01:20:21;25.22;58.70
65396;HTU21D;52004;45.136;39.010;2023-08-08T01:25:20;25.16;58.80
65396;HTU21D;52004;45.136;39.010;2023-08-08T01:27:46;25.15;58.88
65396;HTU21D;52004;45.136;39.010;2023-08-08T01:30:12;25.13;58.91
65396;HTU21D;52004;45.136;39.010;2023-08-08T01:32:39;25.12;58.96
65396;HTU21D;52004;45.136;39.010;2023-08-08T01:35:05;25.08;59.00
65396;HTU21D;52004;45.136;39.010;2023-08-08T01:37:39;25.06;59.06
65396;HTU21D;52004;45.136;39.010;2023-08-08T01:40:07;25.01;59.14
65396;HTU21D;52004;45.136;39.010;2023-08-08T01:42:35;24.99;59.21
65396;HTU21D;52004;45.136;39.010;2023-08-08T01:45:00;24.95;59.25
65396;HTU21D;52004;45.136;39.010;2023-08-08T01:47:29;24.92;59.32
65396;HTU21D;52004;45.136;39.010;2023-08-08T01:49:56;24.90;59.39
65396;HTU21D;52004;45.136;39.010;2023-08-08T01:52:23;24.87;59.44
65396;HTU21D;52004;45.136;39.010;2023-08-08T01:54:49;24.88;59.48
65396;HTU21D;52004;45.136;39.010;2023-08-08T01:57:15;24.88;59.51
65396;HTU21D;52004;45.136;39.010;2023-08-08T01:59:41;24.87;59.51
65396;HTU21D;52004;45.136;39.010;2023-08-08T02:02:07;24.86;59.55
65396;HTU21D;52004;45.136;39.010;2023-08-08T02:04:33;24.85;59.57
65396;HTU21D;52004;45.136;39.010;2023-08-08T02:06:59;24.86;59.59
65396;HTU21D;52004;45.136;39.010;2023-08-08T02:09:25;24.85;59.61
65396;HTU21D;52004;45.136;39.010;2023-08-08T02:11:51;24.88;59.61
65396;HTU21D;52004;45.136;39.010;2023-08-08T02:14:16;24.87;59.61
65396;HTU21D;52004;45.136;39.010;2023-08-08T02:16:42;24.86;59.66
65396;HTU21D;52004;45.136;39.010;2023-08-08T02:19:09;24.85;59.70
65396;HTU21D;52004;45.136;39.010;2023-08-08T02:21:35;24.82;59.77
65396;HTU21D;52004;45.136;39.010;2023-08-08T02:24:01;24.79;59.83
65396;HTU21D;52004;45.136;39.010;2023-08-08T02:26:27;24.77;59.89
65396;HTU21D;52004;45.136;39.010;2023-08-08T02:28:53;24.77;59.94
65396;HTU21D;52004;45.136;39.010;2023-08-08T02:31:19;24.76;59.98
65396;HTU21D;52004;45.136;39.010;2023-08-08T02:33:49;24.76;59.99
65396;HTU21D;52004;45.136;39.010;2023-08-08T02:36:18;24.75;60.03
65396;HTU21D;52004;45.136;39.010;2023-08-08T02:38:45;24.74;60.09
65396;HTU21D;52004;45.136;39.010;2023-08-08T02:41:11;24.73;60.13
65396;HTU21D;52004;45.136;39.010;2023-08-08T02:43:37;24.75;60.15
65396;HTU21D;52004;45.136;39.010;2023-08-08T02:46:03;24.76;60.18
65396;HTU21D;52004;45.136;39.010;2023-08-08T02:48:29;24.78;60.22
65396;HTU21D;52004;45.136;39.010;2023-08-08T02:50:55;24.82;60.20
65396;HTU21D;52004;45.136;39.010;2023-08-08T02:53:24;24.84;60.20
65396;HTU21D;52004;45.136;39.010;2023-08-08T02:55:50;24.85;60.22
65396;HTU21D;52004;45.136;39.010;2023-08-08T02:58:16;24.86;60.24
65396;HTU21D;52004;45.136;39.010;2023-08-08T03:00:43;24.88;60.27
65396;HTU21D;52004;45.136;39.010;2023-08-08T03:03:13;24.89;60.31
65396;HTU21D;52004;45.136;39.010;2023-08-08T03:05:41;24.93;60.35
65396;HTU21D;52004;45.136;39.010;2023-08-08T03:08:07;24.95;60.35
65396;HTU21D;52004;45.136;39.010;2023-08-08T03:10:33;24.99;60.36
65396;HTU21D;52004;45.136;39.010;2023-08-08T03:12:59;25.02;60.35
65396;HTU21D;52004;45.136;39.010;2023-08-08T03:15:26;25.04;60.38
65396;HTU21D;52004;45.136;39.010;2023-08-08T03:17:52;25.07;60.39
65396;HTU21D;52004;45.136;39.010;2023-08-08T03:20:20;25.10;60.43
65396;HTU21D;52004;45.136;39.010;2023-08-08T03:22:46;25.13;60.44
65396;HTU21D;52004;45.136;39.010;2023-08-08T03:25:13;25.16;60.45
65396;HTU21D;52004;45.136;39.010;2023-08-08T03:27:39;25.20;60.47
65396;HTU21D;52004;45.136;39.010;2023-08-08T03:30:08;25.27;60.50
65396;HTU21D;52004;45.136;39.010;2023-08-08T03:32:39;25.31;60.49
65396;HTU21D;52004;45.136;39.010;2023-08-08T03:35:05;25.36;60.48
65396;HTU21D;52004;45.136;39.010;2023-08-08T03:37:32;25.42;60.48
65396;HTU21D;52004;45.136;39.010;2023-08-08T03:39:57;25.47;60.51
65396;HTU21D;52004;45.136;39.010;2023-08-08T03:42:24;25.50;60.52
65396;HTU21D;52004;45.136;39.010;2023-08-08T03:44:50;25.57;60.54
65396;HTU21D;52004;45.136;39.010;2023-08-08T03:47:16;25.61;60.57
65396;HTU21D;52004;45.136;39.010;2023-08-08T03:49:42;25.68;60.56
65396;HTU21D;52004;45.136;39.010;2023-08-08T03:52:08;25.75;60.57
65396;HTU21D;52004;45.136;39.010;2023-08-08T03:54:34;25.82;60.57
65396;HTU21D;52004;45.136;39.010;2023-08-08T03:57:00;25.91;60.54
65396;HTU21D;52004;45.136;39.010;2023-08-08T03:59:27;25.97;60.54
65396;HTU21D;52004;45.136;39.010;2023-08-08T04:01:52;26.07;60.53
65396;HTU21D;52004;45.136;39.010;2023-08-08T04:04:18;26.11;60.54
65396;HTU21D;52004;45.136;39.010;2023-08-08T04:06:44;26.19;60.53
65396;HTU21D;52004;45.136;39.010;2023-08-08T04:09:10;26.26;60.54
65396;HTU21D;52004;45.136;39.010;2023-08-08T04:11:36;26.34;60.51
65396;HTU21D;52004;45.136;39.010;2023-08-08T04:14:02;26.42;60.52
65396;HTU21D;52004;45.136;39.010;2023-08-08T04:16:29;26.50;60.51
65396;HTU21D;52004;45.136;39.010;2023-08-08T04:18:54;26.60;60.47
65396;HTU21D;52004;45.136;39.010;2023-08-08T04:21:20;26.69;60.44
65396;HTU21D;52004;45.136;39.010;2023-08-08T04:23:46;26.78;60.38
65396;HTU21D;52004;45.136;39.010;2023-08-08T04:26:12;26.86;60.34
65396;HTU21D;52004;45.136;39.010;2023-08-08T04:28:38;26.97;60.31
65396;HTU21D;52004;45.136;39.010;2023-08-08T04:31:04;27.05;60.28
65396;HTU21D;52004;45.136;39.010;2023-08-08T04:33:29;27.13;60.24
65396;HTU21D;52004;45.136;39.010;2023-08-08T04:35:55;27.23;60.23
65396;HTU21D;52004;45.136;39.010;2023-08-08T04:38:21;27.30;60.20
65396;HTU21D;52004;45.136;39.010;2023-08-08T04:40:47;0.00;60.20
65396;HTU21D;52004;45.136;39.010;2023-08-08T04:43:13;27.49;60.20
65396;HTU21D;52004;45.136;39.010;2023-08-08T04:45:39;27.57;60.17
65396;HTU21D;52004;45.136;39.010;2023-08-08T04:48:05;0.00;60.14
65396;HTU21D;52004;45.136;39.010;2023-08-08T04:50:31;27.73;60.12
65396;HTU21D;52004;45.136;39.010;2023-08-08T04:52:56;27.81;60.10
65396;HTU21D;52004;45.136;39.010;2023-08-08T04:55:22;0.00;60.11
65396;HTU21D;52004;45.136;39.010;2023-08-08T04:57:48;27.97;60.09
65396;HTU21D;52004;45.136;39.010;2023-08-08T05:00:14;28.04;60.05
65396;HTU21D;52004;45.136;39.010;2023-08-08T05:02:40;28.11;60.00
65396;HTU21D;52004;45.136;39.010;2023-08-08T05:05:06;28.17;59.98
65396;HTU21D;52004;45.136;39.010;2023-08-08T05:07:32;28.25;59.99
65396;HTU21D;52004;45.136;39.010;2023-08-08T05:10:01;28.32;59.98
65396;HTU21D;52004;45.136;39.010;2023-08-08T05:12:28;28.40;59.95
65396;HTU21D;52004;45.136;39.010;2023-08-08T05:14:54;28.48;59.93
65396;HTU21D;52004;45.136;39.010;2023-08-08T05:17:20;28.56;59.94
65396;HTU21D;52004;45.136;39.010;2023-08-08T05:19:46;28.64;59.90
65396;HTU21D;52004;45.136;39.010;2023-08-08T05:22:11;28.74;59.89
65396;HTU21D;52004;45.136;39.010;2023-08-08T05:24:37;28.82;59.80
65396;HTU21D;52004;45.136;39.010;2023-08-08T05:27:03;28.90;59.79
65396;HTU21D;52004;45.136;39.010;2023-08-08T05:29:29;28.98;59.74
65396;HTU21D;52004;45.136;39.010;2023-08-08T05:31:55;29.04;59.68
65396;HTU21D;52004;45.136;39.010;2023-08-08T05:34:23;29.13;59.64
65396;HTU21D;52004;45.136;39.010;2023-08-08T05:36:49;29.21;59.61
65396;HTU21D;52004;45.136;39.010;2023-08-08T05:39:14;29.30;59.55
65396;HTU21D;52004;45.136;39.010;2023-08-08T05:41:40;29.39;59.44
65396;HTU21D;52004;45.136;39.010;2023-08-08T05:44:06;29.45;59.35
65396;HTU21D;52004;45.136;39.010;2023-08-08T05:46:32;29.50;59.30
65396;HTU21D;52004;45.136;39.010;2023-08-08T05:48:58;29.59;59.28
65396;HTU21D;52004;45.136;39.010;2023-08-08T05:51:24;29.67;59.23
65396;HTU21D;52004;45.136;39.010;2023-08-08T05:53:50;29.76;59.12
65396;HTU21D;52004;45.136;39.010;2023-08-08T05:56:16;29.85;59.06
65396;HTU21D;52004;45.136;39.010;2023-08-08T05:58:42;29.94;58.94
65396;HTU21D;52004;45.136;39.010;2023-08-08T06:01:08;30.01;58.84
65396;HTU21D;52004;45.136;39.010;2023-08-08T06:03:35;30.09;58.82
65396;HTU21D;52004;45.136;39.010;2023-08-08T06:06:03;30.19;58.68
65396;HTU21D;52004;45.136;39.010;2023-08-08T06:08:29;30.27;58.58
65396;HTU21D;52004;45.136;39.010;2023-08-08T06:10:55;30.33;58.48
65396;HTU21D;52004;45.136;39.010;2023-08-08T06:13:21;30.40;58.44
65396;HTU21D;52004;45.136;39.010;2023-08-08T06:15:46;30.50;58.29
65396;HTU21D;52004;45.136;39.010;2023-08-08T06:18:12;30.55;58.11
65396;HTU21D;52004;45.136;39.010;2023-08-08T06:20:38;30.60;58.09
65396;HTU21D;52004;45.136;39.010;2023-08-08T06:23:04;30.67;57.92
65396;HTU21D;52004;45.136;39.010;2023-08-08T06:25:30;30.69;57.86
65396;HTU21D;52004;45.136;39.010;2023-08-08T06:27:56;30.76;57.82
65396;HTU21D;52004;45.136;39.010;2023-08-08T06:30:48;30.85;57.79
65396;HTU21D;52004;45.136;39.010;2023-08-08T06:33:13;30.93;57.74
65396;HTU21D;52004;45.136;39.010;2023-08-08T06:35:39;31.04;57.69
65396;HTU21D;52004;45.136;39.010;2023-08-08T06:38:05;31.14;57.50
65396;HTU21D;52004;45.136;39.010;2023-08-08T06:40:31;31.21;57.36
65396;HTU21D;52004;45.136;39.010;2023-08-08T06:42:57;31.28;57.30
65396;HTU21D;52004;45.136;39.010;2023-08-08T06:45:23;31.35;57.16
65396;HTU21D;52004;45.136;39.010;2023-08-08T06:47:49;31.40;57.16
65396;HTU21D;52004;45.136;39.010;2023-08-08T06:50:15;31.48;57.03
65396;HTU21D;52004;45.136;39.010;2023-08-08T06:52:42;31.53;56.92
65396;HTU21D;52004;45.136;39.010;2023-08-08T06:55:08;31.60;56.76
65396;HTU21D;52004;45.136;39.010;2023-08-08T06:57:34;31.65;56.74
65396;HTU21D;52004;45.136;39.010;2023-08-08T07:00:01;31.74;56.61
65396;HTU21D;52004;45.136;39.010;2023-08-08T07:02:27;31.80;56.48
65396;HTU21D;52004;45.136;39.010;2023-08-08T07:04:53;31.86;56.39
65396;HTU21D;52004;45.136;39.010;2023-08-08T07:07:19;31.94;56.32
65396;HTU21D;52004;45.136;39.010;2023-08-08T07:09:45;32.03;56.21
65396;HTU21D;52004;45.136;39.010;2023-08-08T07:12:11;32.11;56.10
65396;HTU21D;52004;45.136;39.010;2023-08-08T07:14:37;32.18;55.96
65396;HTU21D;52004;45.136;39.010;2023-08-08T07:17:03;32.25;55.93
65396;HTU21D;52004;45.136;39.010;2023-08-08T07:19:29;32.35;55.86
65396;HTU21D;52004;45.136;39.010;2023-08-08T07:21:55;32.46;55.76
65396;HTU21D;52004;45.136;39.010;2023-08-08T07:24:21;32.56;55.71
65396;HTU21D;52004;45.136;39.010;2023-08-08T07:26:47;32.66;55.60
65396;HTU21D;52004;45.136;39.010;2023-08-08T07:29:13;32.74;55.49
65396;HTU21D;52004;45.136;39.010;2023-08-08T07:31:40;32.82;55.43
65396;HTU21D;52004;45.136;39.010;2023-08-08T07:34:05;32.91;55.39
65396;HTU21D;52004;45.136;39.010;2023-08-08T07:36:31;33.03;55.35
65396;HTU21D;52004;45.136;39.010;2023-08-08T07:38:57;33.13;55.21
65396;HTU21D;52004;45.136;39.010;2023-08-08T07:41:25;33.18;55.01
65396;HTU21D;52004;45.136;39.010;2023-08-08T07:43:53;33.23;54.91
65396;HTU21D;52004;45.136;39.010;2023-08-08T07:46:18;33.30;54.97
65396;HTU21D;52004;45.136;39.010;2023-08-08T07:48:45;0.00;54.89
65396;HTU21D;52004;45.136;39.010;2023-08-08T07:51:11;33.50;54.78
65396;HTU21D;52004;45.136;39.010;2023-08-08T07:53:37;33.61;54.74
65396;HTU21D;52004;45.136;39.010;2023-08-08T07:56:03;33.71;54.62
65396;HTU21D;52004;45.136;39.010;2023-08-08T07:58:29;33.80;54.52
65396;HTU21D;52004;45.136;39.010;2023-08-08T08:00:55;33.86;54.37
65396;HTU21D;52004;45.136;39.010;2023-08-08T08:03:21;33.92;54.33
65396;HTU21D;52004;45.136;39.010;2023-08-08T08:05:47;34.00;54.26
65396;HTU21D;52004;45.136;39.010;2023-08-08T08:08:13;34.07;54.17
65396;HTU21D;52004;45.136;39.010;2023-08-08T08:10:39;34.15;54.11
65396;HTU21D;52004;45.136;39.010;2023-08-08T08:13:05;34.22;53.94
65396;HTU21D;52004;45.136;39.010;2023-08-08T08:15:31;34.23;53.81
65396;HTU21D;52004;45.136;39.010;2023-08-08T08:17:57;34.27;53.73
65396;HTU21D;52004;45.136;39.010;2023-08-08T08:20:23;34.33;53.70
65396;HTU21D;52004;45.136;39.010;2023-08-08T08:22:49;34.38;53.66
65396;HTU21D;52004;45.136;39.010;2023-08-08T08:25:15;34.48;53.64
65396;HTU21D;52004;45.136;39.010;2023-08-08T08:27:40;34.56;53.52
65396;HTU21D;52004;45.136;39.010;2023-08-08T08:30:06;34.65;53.40
65396;HTU21D;52004;45.136;39.010;2023-08-08T08:32:35;34.71;53.32
65396;HTU21D;52004;45.136;39.010;2023-08-08T08:35:02;34.78;53.24
65396;HTU21D;52004;45.136;39.010;2023-08-08T08:37:29;34.84;53.21
65396;HTU21D;52004;45.136;39.010;2023-08-08T08:39:56;34.94;53.17
65396;HTU21D;52004;45.136;39.010;2023-08-08T08:42:22;34.99;53.02
65396;HTU21D;52004;45.136;39.010;2023-08-08T08:44:47;35.07;52.97
65396;HTU21D;52004;45.136;39.010;2023-08-08T08:47:15;35.14;52.86
65396;HTU21D;52004;45.136;39.010;2023-08-08T08:49:43;35.22;52.78
65396;HTU21D;52004;45.136;39.010;2023-08-08T08:52:11;35.21;52.53
65396;HTU21D;52004;45.136;39.010;2023-08-08T08:54:38;35.19;52.43
65396;HTU21D;52004;45.136;39.010;2023-08-08T08:57:04;35.18;52.36
65396;HTU21D;52004;45.136;39.010;2023-08-08T08:59:30;35.20;52.36
65396;HTU21D;52004;45.136;39.010;2023-08-08T09:01:56;35.25;52.40
65396;HTU21D;52004;45.136;39.010;2023-08-08T09:04:22;35.34;52.38
65396;HTU21D;52004;45.136;39.010;2023-08-08T09:06:49;35.41;52.25
65396;HTU21D;52004;45.136;39.010;2023-08-08T09:09:16;35.49;52.22
65396;HTU21D;52004;45.136;39.010;2023-08-08T09:11:46;35.56;52.11
65396;HTU21D;52004;45.136;39.010;2023-08-08T09:14:20;35.63;51.91
65396;HTU21D;52004;45.136;39.010;2023-08-08T09:16:47;35.66;51.89
65396;HTU21D;52004;45.136;39.010;2023-08-08T09:19:13;35.68;51.87
65396;HTU21D;52004;45.136;39.010;2023-08-08T09:21:39;35.74;51.85
65396;HTU21D;52004;45.136;39.010;2023-08-08T09:24:05;35.78;51.69
65396;HTU21D;52004;45.136;39.010;2023-08-08T09:26:32;35.82;51.72
65396;HTU21D;52004;45.136;39.010;2023-08-08T09:28:58;35.89;51.60
65396;HTU21D;52004;45.136;39.010;2023-08-08T09:31:25;35.93;51.56
65396;HTU21D;52004;45.136;39.010;2023-08-08T09:33:53;35.99;51.53
65396;HTU21D;52004;45.136;39.010;2023-08-08T09:36:19;36.09;51.50
65396;HTU21D;52004;45.136;39.010;2023-08-08T09:38:45;36.17;51.43
65396;HTU21D;52004;45.136;39.010;2023-08-08T09:41:11;36.23;51.28
65396;HTU21D;52004;45.136;39.010;2023-08-08T09:43:37;36.28;51.28
65396;HTU21D;52004;45.136;39.010;2023-08-08T09:46:03;36.37;51.26
65396;HTU21D;52004;45.136;39.010;2023-08-08T09:48:29;36.42;51.05
65396;HTU21D;52004;45.136;39.010;2023-08-08T09:51:01;36.45;50.93
65396;HTU21D;52004;45.136;39.010;2023-08-08T09:53:27;36.44;50.88
65396;HTU21D;52004;45.136;39.010;2023-08-08T09:55:54;36.44;50.89
65396;HTU21D;52004;45.136;39.010;2023-08-08T09:58:21;36.49;50.85
65396;HTU21D;52004;45.136;39.010;2023-08-08T10:00:50;36.47;50.74
65396;HTU21D;52004;45.136;39.010;2023-08-08T10:03:16;36.52;50.76
65396;HTU21D;52004;45.136;39.010;2023-08-08T10:05:45;36.58;50.72
65396;HTU21D;52004;45.136;39.010;2023-08-08T10:08:11;36.64;50.62
65396;HTU21D;52004;45.136;39.010;2023-08-08T10:10:40;36.69;50.47
65396;HTU21D;52004;45.136;39.010;2023-08-08T10:13:07;36.70;50.46
65396;HTU21D;52004;45.136;39.010;2023-08-08T10:15:37;36.76;50.43
65396;HTU21D;52004;45.136;39.010;2023-08-08T10:18:05;36.83;50.38
65396;HTU21D;52004;45.136;39.010;2023-08-08T10:20:31;36.89;50.29
65396;HTU21D;52004;45.136;39.010;2023-08-08T10:23:01;36.96;50.19
65396;HTU21D;52004;45.136;39.010;2023-08-08T10:25:30;36.98;50.04
65396;HTU21D;52004;45.136;39.010;2023-08-08T10:28:06;36.98;50.00
65396;HTU21D;52004;45.136;39.010;2023-08-08T10:33:16;36.98;49.98
65396;HTU21D;52004;45.136;39.010;2023-08-08T10:35:49;37.04;49.93
65396;HTU21D;52004;45.136;39.010;2023-08-08T10:38:16;37.07;49.85
65396;HTU21D;52004;45.136;39.010;2023-08-08T10:40:42;37.15;49.88
65396;HTU21D;52004;45.136;39.010;2023-08-08T10:43:11;37.18;49.76
65396;HTU21D;52004;45.136;39.010;2023-08-08T10:45:40;37.21;49.62
65396;HTU21D;52004;45.136;39.010;2023-08-08T10:48:08;37.23;49.63
65396;HTU21D;52004;45.136;39.010;2023-08-08T10:50:38;37.28;49.56
65396;HTU21D;52004;45.136;39.010;2023-08-08T10:53:07;37.29;49.41
65396;HTU21D;52004;45.136;39.010;2023-08-08T10:55:34;37.25;49.34
65396;HTU21D;52004;45.136;39.010;2023-08-08T10:58:10;37.21;49.44
65396;HTU21D;52004;45.136;39.010;2023-08-08T11:00:39;37.23;49.33
65396;HTU21D;52004;45.136;39.010;2023-08-08T11:03:08;37.23;49.22
65396;HTU21D;52004;45.136;39.010;2023-08-08T11:05:35;37.27;49.14
65396;HTU21D;52004;45.136;39.010;2023-08-08T11:58:49;37.47;47.98
65396;HTU21D;52004;45.136;39.010;2023-08-08T12:01:16;37.46;48.02
65396;HTU21D;52004;45.136;39.010;2023-08-08T12:03:42;37.50;48.06
65396;HTU21D;52004;45.136;39.010;2023-08-08T12:06:15;37.58;47.94
65396;HTU21D;52004;45.136;39.010;2023-08-08T12:08:44;37.62;47.94
65396;HTU21D;52004;45.136;39.010;2023-08-08T12:11:11;37.66;47.87
65396;HTU21D;52004;45.136;39.010;2023-08-08T12:13:38;37.72;47.79
65396;HTU21D;52004;45.136;39.010;2023-08-08T12:16:10;37.74;47.77
65396;HTU21D;52004;45.136;39.010;2023-08-08T12:18:37;37.80;47.63
65396;HTU21D;52004;45.136;39.010;2023-08-08T12:21:07;37.78;47.52
65396;HTU21D;52004;45.136;39.010;2023-08-08T12:23:33;37.77;47.50
65396;HTU21D;52004;45.136;39.010;2023-08-08T12:26:00;37.76;47.46
65396;HTU21D;52004;45.136;39.010;2023-08-08T12:28:28;37.76;47.47
65396;HTU21D;52004;45.136;39.010;2023-08-08T12:30:54;37.80;47.44
65396;HTU21D;52004;45.136;39.010;2023-08-08T12:33:20;37.81;47.38
65396;HTU21D;52004;45.136;39.010;2023-08-08T12:35:47;37.85;47.38
65396;HTU21D;52004;45.136;39.010;2023-08-08T12:38:13;37.86;47.28
65396;HTU21D;52004;45.136;39.010;2023-08-08T12:40:39;37.84;47.18
65396;HTU21D;52004;45.136;39.010;2023-08-08T12:43:05;37.81;47.15
65396;HTU21D;52004;45.136;39.010;2023-08-08T12:45:31;37.78;47.11
65396;HTU21D;52004;45.136;39.010;2023-08-08T12:47:58;37.75;47.01
65396;HTU21D;52004;45.136;39.010;2023-08-08T13:42:11;37.17;46.63
65396;HTU21D;52004;45.136;39.010;2023-08-08T13:44:36;37.19;46.58
65396;HTU21D;52004;45.136;39.010;2023-08-08T13:47:02;37.19;46.51
65396;HTU21D;52004;45.136;39.010;2023-08-08T13:49:28;37.17;46.46
65396;HTU21D;52004;45.136;39.010;2023-08-08T13:51:54;37.16;46.44
65396;HTU21D;52004;45.136;39.010;2023-08-08T13:54:20;37.15;46.43
65396;HTU21D;52004;45.136;39.010;2023-08-08T13:56:46;37.14;46.38
65396;HTU21D;52004;45.136;39.010;2023-08-08T13:59:12;37.12;46.31
65396;HTU21D;52004;45.136;39.010;2023-08-08T14:01:38;37.06;46.29
65396;HTU21D;52004;45.136;39.010;2023-08-08T14:04:04;37.04;46.29
65396;HTU21D;52004;45.136;39.010;2023-08-08T14:06:29;37.01;46.32
65396;HTU21D;52004;45.136;39.010;2023-08-08T14:08:56;36.99;46.35
65396;HTU21D;52004;45.136;39.010;2023-08-08T14:11:22;36.98;46.27
65396;HTU21D;52004;45.136;39.010;2023-08-08T14:13:48;36.96;46.24
65396;HTU21D;52004;45.136;39.010;2023-08-08T14:16:14;36.91;46.24
65396;HTU21D;52004;45.136;39.010;2023-08-08T15:10:20;35.89;46.25
65396;HTU21D;52004;45.136;39.010;2023-08-08T15:12:46;35.84;46.28
65396;HTU21D;52004;45.136;39.010;2023-08-08T15:15:12;35.78;46.28
65396;HTU21D;52004;45.136;39.010;2023-08-08T15:17:40;35.72;46.31
65396;HTU21D;52004;45.136;39.010;2023-08-08T15:20:06;35.67;46.31
65396;HTU21D;52004;45.136;39.010;2023-08-08T15:22:32;35.63;46.35
65396;HTU21D;52004;45.136;39.010;2023-08-08T15:24:58;35.57;46.35
65396;HTU21D;52004;45.136;39.010;2023-08-08T15:27:24;35.53;46.35
65396;HTU21D;52004;45.136;39.010;2023-08-08T15:29:50;35.49;46.38
65396;HTU21D;52004;45.136;39.010;2023-08-08T15:32:15;35.43;46.41
65396;HTU21D;52004;45.136;39.010;2023-08-08T15:34:41;35.39;46.44
65396;HTU21D;52004;45.136;39.010;2023-08-08T15:37:07;35.34;46.48
65396;HTU21D;52004;45.136;39.010;2023-08-08T15:39:34;35.27;46.50
65396;HTU21D;52004;45.136;39.010;2023-08-08T15:42:00;35.21;46.51
65396;HTU21D;52004;45.136;39.010;2023-08-08T15:44:26;35.14;46.54
65396;HTU21D;52004;45.136;39.010;2023-08-08T15:46:52;35.07;46.60
65396;HTU21D;52004;45.136;39.010;2023-08-08T15:49:18;34.99;46.65
65396;HTU21D;52004;45.136;39.010;2023-08-08T15:51:45;34.92;46.68
65396;HTU21D;52004;45.136;39.010;2023-08-08T15:54:11;34.83;46.73
65396;HTU21D;52004;45.136;39.010;2023-08-08T15:56:37;34.77;46.76
65396;HTU21D;52004;45.136;39.010;2023-08-08T15:59:04;34.69;46.80
65396;HTU21D;52004;45.136;39.010;2023-08-08T16:01:30;34.62;46.83
65396;HTU21D;52004;45.136;39.010;2023-08-08T16:03:56;34.55;46.86
65396;HTU21D;52004;45.136;39.010;2023-08-08T16:06:22;34.47;46.87
65396;HTU21D;52004;45.136;39.010;2023-08-08T16:08:49;34.38;46.92
65396;HTU21D;52004;45.136;39.010;2023-08-08T16:11:16;34.30;46.97
65396;HTU21D;52004;45.136;39.010;2023-08-08T16:13:50;34.22;46.99
65396;HTU21D;52004;45.136;39.010;2023-08-08T16:16:26;34.15;47.02
65396;HTU21D;52004;45.136;39.010;2023-08-08T16:19:04;34.06;47.07
65396;HTU21D;52004;45.136;39.010;2023-08-08T16:21:30;33.97;47.11
65396;HTU21D;52004;45.136;39.010;2023-08-08T16:23:56;33.92;47.13
65396;HTU21D;52004;45.136;39.010;2023-08-08T16:26:22;33.85;47.15
65396;HTU21D;52004;45.136;39.010;2023-08-08T16:28:48;33.76;47.18
65396;HTU21D;52004;45.136;39.010;2023-08-08T16:31:14;33.70;47.22
65396;HTU21D;52004;45.136;39.010;2023-08-08T16:33:39;33.63;47.25
65396;HTU21D;52004;45.136;39.010;2023-08-08T16:36:05;33.56;47.28
65396;HTU21D;52004;45.136;39.010;2023-08-08T16:38:33;33.48;47.31
65396;HTU21D;52004;45.136;39.010;2023-08-08T16:40:59;33.41;47.34
65396;HTU21D;52004;45.136;39.010;2023-08-08T16:43:25;33.33;47.39
65396;HTU21D;52004;45.136;39.010;2023-08-08T16:46:02;33.23;47.42
65396;HTU21D;52004;45.136;39.010;2023-08-08T16:48:37;33.15;47.47
65396;HTU21D;52004;45.136;39.010;2023-08-08T16:51:08;33.07;47.51
65396;HTU21D;52004;45.136;39.010;2023-08-08T16:53:34;33.00;47.56
65396;HTU21D;52004;45.136;39.010;2023-08-08T16:56:00;32.92;47.61
65396;HTU21D;52004;45.136;39.010;2023-08-08T16:58:35;32.86;47.62
65396;HTU21D;52004;45.136;39.010;2023-08-08T17:01:09;32.78;47.66
65396;HTU21D;52004;45.136;39.010;2023-08-08T17:03:49;32.74;47.69
65396;HTU21D;52004;45.136;39.010;2023-08-08T17:06:25;0.00;47.72
65396;HTU21D;52004;45.136;39.010;2023-08-08T17:08:52;32.59;47.74
65396;HTU21D;52004;45.136;39.010;2023-08-08T17:11:18;32.53;47.79
65396;HTU21D;52004;45.136;39.010;2023-08-08T17:13:44;32.47;47.83
65396;HTU21D;52004;45.136;39.010;2023-08-08T17:16:12;32.41;47.86
65396;HTU21D;52004;45.136;39.010;2023-08-08T17:18:38;32.37;47.90
65396;HTU21D;52004;45.136;39.010;2023-08-08T17:21:04;32.31;47.92
65396;HTU21D;52004;45.136;39.010;2023-08-08T17:23:30;32.25;47.95
65396;HTU21D;52004;45.136;39.010;2023-08-08T17:25:55;32.20;47.96
65396;HTU21D;52004;45.136;39.010;2023-08-08T18:07:16;31.27;48.56
65396;HTU21D;52004;45.136;39.010;2023-08-08T18:09:42;31.23;48.57
65396;HTU21D;52004;45.136;39.010;2023-08-08T18:12:11;31.19;48.57
65396;HTU21D;52004;45.136;39.010;2023-08-08T18:14:37;31.15;48.58
65396;HTU21D;52004;45.136;39.010;2023-08-08T18:17:05;31.12;48.62
65396;HTU21D;52004;45.136;39.010;2023-08-08T18:19:31;31.10;48.62